Terminal Aerodrome Forecast
Issued by NWS

Home | Current Version | Previous Version | Text Only | Print | Product List | Glossary Off
Versions: 1 2 3 4 5 6 7 8 9 10 11 12 13 14 15 16 17 18 19 20

000
FTUS43 KTOP 251400 AAA
TAFMHK
TAF AMD
KMHK 251405Z 2514/2612 20009KT P6SM SCT100
     FM251430 36007KT P6SM BKN120
     FM251700 VRB05KT P6SM FEW120
     FM260100 16005KT P6SM SCT250=

USA.gov is the U.S. government's official web portal to all federal, state and local government web resources and services.